Time;durP1;ratioP1;P1;durP2;ratioP2;P2;SDS_P1;SDS_P2;PMS_P1;PMS_P2;Temp;Humidity;BMP_temperature;BMP_pressure;BME280_temperature;BME280_humidity;BME280_pressure;Samples;Min_cycle;Max_cycle;Signal;HPM_P1;HPM_P2
2024/03/23 00:02:16;;;;;;;18.80;5.85;;;10.80;99.90;;;;;;5026890;28;20407;-73
2024/03/23 00:04:43;;;;;;;18.42;5.43;;;10.80;99.90;;;;;;5028879;28;20013;-72
2024/03/23 00:07:10;;;;;;;22.27;6.15;;;10.70;99.90;;;;;;5027469;28;20049;-73
2024/03/23 00:09:36;;;;;;;25.15;5.85;;;10.70;99.90;;;;;;5028028;28;20052;-73
2024/03/23 00:12:03;;;;;;;23.90;5.60;;;10.70;99.90;;;;;;5028047;28;20025;-72
2024/03/23 00:14:29;;;;;;;21.45;5.10;;;10.80;99.90;;;;;;5028576;28;20045;-73
2024/03/23 00:16:56;;;;;;;19.13;5.18;;;10.70;99.90;;;;;;5028851;28;20041;-72
2024/03/23 00:19:23;;;;;;;25.98;6.05;;;10.80;99.90;;;;;;5028665;28;20025;-73
2024/03/23 00:21:49;;;;;;;23.52;6.15;;;10.80;99.90;;;;;;5028623;28;20064;-73
2024/03/23 00:24:16;;;;;;;22.05;6.72;;;10.90;99.90;;;;;;5028944;28;20029;-73
2024/03/23 00:26:42;;;;;;;22.30;6.82;;;10.90;99.90;;;;;;5027868;28;20380;-73
2024/03/23 00:29:09;;;;;;;22.50;6.90;;;10.90;99.90;;;;;;5027262;28;20025;-74
2024/03/23 00:31:36;;;;;;;23.80;7.20;;;10.90;99.90;;;;;;5026015;28;20029;-72
2024/03/23 00:34:02;;;;;;;23.00;6.18;;;10.80;99.90;;;;;;5027299;28;20029;-72
2024/03/23 00:36:29;;;;;;;18.88;6.03;;;10.90;99.90;;;;;;5028441;28;20401;-72
2024/03/23 00:38:56;;;;;;;18.85;6.07;;;10.90;99.90;;;;;;5027308;28;20021;-72
2024/03/23 00:41:22;;;;;;;15.18;5.03;;;10.90;99.90;;;;;;5026445;28;20050;-72
2024/03/23 00:43:49;;;;;;;23.40;5.22;;;10.90;99.90;;;;;;5025877;28;20189;-72
2024/03/23 00:46:15;;;;;;;16.15;5.95;;;10.90;99.90;;;;;;5026689;28;20061;-72
2024/03/23 00:48:42;;;;;;;18.50;5.65;;;10.90;99.90;;;;;;5026902;28;20466;-72
2024/03/23 00:51:08;;;;;;;18.77;5.10;;;10.80;99.90;;;;;;5026801;28;20034;-73
2024/03/23 00:53:34;;;;;;;18.80;5.22;;;10.80;99.90;;;;;;5027686;28;20029;-72
2024/03/23 00:56:00;;;;;;;16.92;5.10;;;10.90;99.90;;;;;;5026350;28;20825;-73
2024/03/23 00:58:26;;;;;;;17.52;5.20;;;10.70;99.90;;;;;;5027111;28;20028;-72
2024/03/23 01:00:52;;;;;;;21.10;5.18;;;10.80;99.90;;;;;;5027220;28;20055;-72
2024/03/23 01:03:17;;;;;;;17.70;5.85;;;10.70;99.90;;;;;;5027665;28;20470;-73
2024/03/23 01:05:43;;;;;;;20.83;5.68;;;10.80;99.90;;;;;;5026942;28;20025;-73
2024/03/23 01:08:09;;;;;;;20.98;6.05;;;10.70;99.90;;;;;;5026322;28;20088;-72
2024/03/23 01:10:34;;;;;;;17.98;5.53;;;10.60;99.90;;;;;;5025962;28;20052;-72
2024/03/23 01:13:00;;;;;;;20.05;5.28;;;10.50;99.90;;;;;;5026361;28;20025;-72
2024/03/23 01:15:26;;;;;;;27.23;5.95;;;10.60;99.90;;;;;;5027029;28;20393;-72
2024/03/23 01:17:51;;;;;;;17.80;6.28;;;10.60;99.90;;;;;;5027367;28;20112;-73
2024/03/23 01:20:17;;;;;;;15.02;5.20;;;10.60;99.90;;;;;;5026884;28;20053;-72
2024/03/23 01:22:43;;;;;;;16.10;5.35;;;10.50;99.90;;;;;;5026920;28;20390;-72
2024/03/23 01:25:08;;;;;;;15.65;5.93;;;10.60;99.90;;;;;;5027999;28;20025;-72
2024/03/23 01:27:34;;;;;;;23.63;6.50;;;10.50;99.90;;;;;;5023978;28;20033;-73
2024/03/23 01:30:00;;;;;;;17.63;5.88;;;10.50;99.90;;;;;;5025130;28;20033;-72
2024/03/23 01:32:26;;;;;;;19.00;6.20;;;10.50;99.90;;;;;;5026854;28;20360;-73
2024/03/23 01:34:51;;;;;;;20.25;5.78;;;10.40;99.90;;;;;;5027033;28;20038;-72
2024/03/23 01:37:17;;;;;;;21.17;6.93;;;10.40;99.90;;;;;;5026204;28;20036;-72
2024/03/23 01:39:43;;;;;;;19.38;6.47;;;10.40;99.90;;;;;;5024845;28;20096;-73
2024/03/23 01:42:08;;;;;;;12.60;4.72;;;10.40;99.90;;;;;;5025763;28;20029;-73
2024/03/23 01:44:34;;;;;;;18.83;5.30;;;10.40;99.90;;;;;;5027211;28;20044;-72
2024/03/23 01:47:00;;;;;;;16.23;5.45;;;10.30;99.90;;;;;;5026666;28;20037;-72
2024/03/23 01:49:26;;;;;;;10.77;4.82;;;10.30;99.90;;;;;;5027296;28;20417;-72
2024/03/23 01:51:51;;;;;;;17.48;5.57;;;10.40;99.90;;;;;;5026620;28;20075;-72
2024/03/23 01:54:18;;;;;;;19.48;5.30;;;10.40;99.90;;;;;;5026440;28;20537;-73
2024/03/23 01:56:43;;;;;;;19.48;5.65;;;10.40;99.90;;;;;;5026066;28;20025;-72
2024/03/23 01:59:09;;;;;;;15.48;5.30;;;10.40;99.90;;;;;;5025718;28;20032;-72
2024/03/23 02:01:38;;;;;;;13.50;5.80;;;10.50;99.90;;;;;;5025020;28;20087;-72
2024/03/23 02:04:04;;;;;;;23.35;5.38;;;10.50;99.90;;;;;;5026100;28;20021;-72
2024/03/23 02:06:31;;;;;;;18.52;5.80;;;10.40;99.90;;;;;;5026327;28;20060;-73
2024/03/23 02:08:57;;;;;;;22.80;6.40;;;10.40;99.90;;;;;;5025673;28;20033;-72
2024/03/23 02:11:23;;;;;;;20.75;5.55;;;10.40;99.90;;;;;;5026309;28;20072;-72
2024/03/23 02:13:48;;;;;;;16.38;6.05;;;10.30;99.90;;;;;;5025343;28;20021;-73
2024/03/23 02:16:14;;;;;;;18.63;5.10;;;10.30;99.90;;;;;;5026775;28;20045;-72
2024/03/23 02:18:40;;;;;;;20.42;5.70;;;10.30;99.90;;;;;;5024805;28;20045;-73
2024/03/23 02:21:06;;;;;;;18.92;5.80;;;10.30;99.90;;;;;;5026737;28;20029;-73
2024/03/23 02:23:31;;;;;;;20.20;6.65;;;10.20;99.90;;;;;;5025924;28;20474;-72
2024/03/23 02:25:57;;;;;;;15.48;5.85;;;10.20;99.90;;;;;;5026550;28;20045;-72
2024/03/23 02:28:23;;;;;;;18.98;6.65;;;10.20;99.90;;;;;;5025934;28;20449;-73
2024/03/23 02:30:49;;;;;;;23.42;6.93;;;10.10;99.90;;;;;;5026471;28;20037;-73
2024/03/23 02:33:16;;;;;;;19.63;6.32;;;10.10;99.90;;;;;;5026352;28;20497;-73
2024/03/23 02:35:41;;;;;;;21.08;5.75;;;9.90;99.90;;;;;;5025710;28;20039;-73
2024/03/23 02:38:07;;;;;;;18.15;5.80;;;9.70;99.90;;;;;;5025330;28;20029;-73
2024/03/23 02:40:33;;;;;;;12.73;5.07;;;9.60;99.90;;;;;;5026557;28;21187;-73
2024/03/23 02:42:58;;;;;;;16.58;5.28;;;9.50;99.90;;;;;;5025630;28;20415;-75
2024/03/23 02:45:24;;;;;;;18.88;4.80;;;9.70;99.90;;;;;;5026389;28;20394;-74
2024/03/23 02:47:51;;;;;;;13.60;4.63;;;9.80;99.90;;;;;;5025047;28;20420;-74
2024/03/23 02:50:18;;;;;;;12.02;4.40;;;9.80;99.90;;;;;;5026220;28;20037;-73
2024/03/23 02:52:44;;;;;;;13.52;4.75;;;9.90;99.90;;;;;;5025821;28;20032;-74
2024/03/23 02:55:10;;;;;;;17.55;4.80;;;9.90;99.90;;;;;;5026174;28;20037;-72
2024/03/23 02:57:35;;;;;;;19.23;4.95;;;9.90;99.90;;;;;;5025100;28;20032;-72
2024/03/23 03:00:01;;;;;;;20.80;5.28;;;9.90;99.90;;;;;;5025797;28;20036;-72
2024/03/23 03:02:27;;;;;;;17.63;6.00;;;10.00;99.90;;;;;;5024957;28;22628;-72
2024/03/23 03:04:52;;;;;;;23.52;5.30;;;10.00;99.90;;;;;;5024626;28;20530;-73
2024/03/23 03:07:18;;;;;;;19.25;5.53;;;10.00;99.90;;;;;;5025546;28;20514;-72
2024/03/23 03:09:44;;;;;;;19.35;6.68;;;10.00;99.90;;;;;;5024643;28;20075;-72
2024/03/23 03:12:10;;;;;;;15.07;5.65;;;10.00;99.90;;;;;;5025502;28;20437;-72
2024/03/23 03:14:35;;;;;;;15.13;5.55;;;10.00;99.90;;;;;;5025954;28;20029;-72
2024/03/23 03:17:01;;;;;;;17.45;5.90;;;10.10;99.90;;;;;;5024429;28;20398;-73
2024/03/23 03:19:27;;;;;;;25.90;6.40;;;10.00;99.90;;;;;;5024711;28;20132;-71
2024/03/23 03:21:53;;;;;;;19.70;5.78;;;9.90;99.90;;;;;;5025558;28;20044;-72
2024/03/23 03:24:19;;;;;;;23.40;7.63;;;9.80;99.90;;;;;;5022461;28;20491;-72
2024/03/23 03:26:44;;;;;;;22.73;7.57;;;9.70;99.90;;;;;;5026110;28;20482;-73
2024/03/23 03:29:11;;;;;;;23.40;8.05;;;9.70;99.90;;;;;;5023673;28;20029;-73
2024/03/23 03:31:37;;;;;;;20.20;7.32;;;9.70;99.90;;;;;;5025990;28;20478;-72
2024/03/23 03:34:03;;;;;;;29.73;8.90;;;9.60;99.90;;;;;;5026564;28;20121;-73
2024/03/23 03:36:29;;;;;;;29.10;8.63;;;9.50;99.90;;;;;;5016674;28;20116;-73
2024/03/23 03:38:54;;;;;;;24.10;8.35;;;9.60;99.90;;;;;;5017474;28;20037;-72
2024/03/23 03:41:20;;;;;;;23.33;7.45;;;9.60;99.90;;;;;;5030218;28;20065;-72
2024/03/23 03:43:46;;;;;;;22.83;7.15;;;9.50;99.90;;;;;;5025160;28;20018;-72
2024/03/23 03:46:11;;;;;;;33.05;7.80;;;9.40;99.90;;;;;;5030309;28;20038;-72
2024/03/23 03:48:37;;;;;;;23.77;8.15;;;9.40;99.90;;;;;;5030818;28;20025;-72
2024/03/23 03:51:04;;;;;;;21.80;7.10;;;9.40;99.90;;;;;;5029746;28;20052;-72
2024/03/23 03:53:30;;;;;;;27.17;7.90;;;9.30;99.90;;;;;;5031135;28;20104;-71
2024/03/23 03:55:56;;;;;;;21.25;7.22;;;9.20;99.90;;;;;;5031021;28;20063;-72
2024/03/23 03:58:22;;;;;;;27.90;7.60;;;9.30;99.90;;;;;;5030140;28;20061;-72
2024/03/23 04:00:48;;;;;;;26.90;8.35;;;9.40;99.90;;;;;;5030125;28;20494;-72
2024/03/23 04:03:13;;;;;;;26.15;7.18;;;9.30;99.90;;;;;;5031648;28;20025;-72
2024/03/23 04:05:39;;;;;;;25.15;8.05;;;9.30;99.90;;;;;;5033607;28;20428;-72
2024/03/23 04:08:07;;;;;;;25.85;7.82;;;9.30;99.90;;;;;;5032050;28;20439;-71
2024/03/23 04:10:32;;;;;;;19.38;7.70;;;9.30;99.90;;;;;;5038721;28;20048;-71
2024/03/23 04:12:58;;;;;;;26.23;8.13;;;9.40;99.90;;;;;;5034506;28;20463;-71
2024/03/23 04:15:24;;;;;;;20.42;8.10;;;9.30;99.90;;;;;;5034113;28;20037;-71
2024/03/23 04:17:49;;;;;;;21.08;7.38;;;9.30;99.90;;;;;;5044356;28;20013;-72
2024/03/23 04:20:16;;;;;;;21.45;7.50;;;9.30;99.90;;;;;;5038904;28;20390;-71
2024/03/23 04:22:43;;;;;;;20.92;7.03;;;9.10;99.90;;;;;;5034175;28;20018;-71
2024/03/23 04:25:10;;;;;;;17.20;5.65;;;9.00;99.90;;;;;;5034328;28;20485;-72
2024/03/23 04:27:40;;;;;;;24.80;7.03;;;8.90;99.90;;;;;;5033665;28;20067;-71
2024/03/23 04:30:10;;;;;;;20.92;7.20;;;9.00;99.90;;;;;;5034346;28;20013;-71
2024/03/23 04:32:39;;;;;;;29.55;7.97;;;8.90;99.90;;;;;;5034114;28;20029;-71
2024/03/23 04:35:05;;;;;;;21.23;6.47;;;8.90;99.90;;;;;;5034081;28;20037;-71
2024/03/23 04:37:33;;;;;;;22.67;7.35;;;8.80;99.90;;;;;;5033435;28;20053;-72
2024/03/23 04:40:01;;;;;;;22.10;6.82;;;8.80;99.90;;;;;;5039314;28;20025;-71
2024/03/23 04:42:26;;;;;;;23.65;7.78;;;8.80;99.90;;;;;;5034048;28;20052;-71
2024/03/23 04:44:52;;;;;;;25.08;8.80;;;8.80;99.90;;;;;;5033830;28;20029;-71
2024/03/23 04:47:18;;;;;;;28.00;9.63;;;8.80;99.90;;;;;;5033982;28;20092;-71
2024/03/23 04:49:44;;;;;;;18.48;8.75;;;8.80;99.90;;;;;;5034432;28;20533;-72
2024/03/23 04:52:10;;;;;;;27.30;9.35;;;8.80;99.90;;;;;;5033664;28;20079;-71
2024/03/23 04:54:35;;;;;;;23.10;8.80;;;8.70;99.90;;;;;;5034218;28;20025;-71
2024/03/23 04:57:01;;;;;;;28.85;9.43;;;8.60;99.90;;;;;;5032445;28;20466;-72
2024/03/23 04:59:27;;;;;;;26.63;9.85;;;8.60;99.90;;;;;;5033685;28;20041;-71
2024/03/23 05:01:52;;;;;;;29.15;10.40;;;8.60;99.90;;;;;;5032746;28;20054;-71
2024/03/23 05:04:18;;;;;;;23.92;10.63;;;8.50;99.90;;;;;;5044291;28;20497;-71
2024/03/23 05:06:44;;;;;;;22.10;9.63;;;8.50;99.90;;;;;;5034218;28;20489;-71
2024/03/23 05:09:11;;;;;;;20.55;9.48;;;8.50;99.90;;;;;;5032889;28;20383;-71
2024/03/23 05:11:40;;;;;;;27.98;9.52;;;8.40;99.90;;;;;;5033264;28;20051;-72
2024/03/23 05:14:05;;;;;;;25.33;9.00;;;8.40;99.90;;;;;;5032157;28;20029;-71
2024/03/23 05:16:32;;;;;;;29.88;9.93;;;8.40;99.90;;;;;;5033583;28;20521;-71
2024/03/23 05:18:57;;;;;;;28.77;10.95;;;8.50;99.90;;;;;;5032774;28;20026;-71
2024/03/23 05:21:23;;;;;;;33.08;9.85;;;8.50;99.90;;;;;;5032517;28;20037;-71
2024/03/23 05:23:49;;;;;;;30.73;10.30;;;8.60;99.90;;;;;;5039883;28;20091;-71
2024/03/23 05:26:14;;;;;;;30.88;10.60;;;8.60;99.90;;;;;;5032648;28;20138;-71
2024/03/23 05:28:40;;;;;;;27.05;11.18;;;8.70;99.90;;;;;;5044163;28;20119;-71
2024/03/23 05:31:06;;;;;;;25.80;10.10;;;8.70;99.90;;;;;;5032820;28;20056;-71
2024/03/23 05:33:32;;;;;;;34.70;11.10;;;8.70;99.90;;;;;;5042567;28;20036;-71
2024/03/23 05:35:59;;;;;;;34.15;11.00;;;8.60;99.90;;;;;;5032459;28;20050;-71
2024/03/23 05:38:25;;;;;;;30.00;11.30;;;8.60;99.90;;;;;;5033442;28;20101;-71
2024/03/23 05:41:01;;;;;;;29.45;9.55;;;8.60;99.90;;;;;;5031944;28;20055;-71
2024/03/23 05:43:28;;;;;;;23.00;9.25;;;8.60;99.90;;;;;;5036693;28;20017;-71
2024/03/23 05:45:58;;;;;;;24.00;9.77;;;8.60;99.90;;;;;;5040787;28;20029;-71
2024/03/23 05:48:25;;;;;;;28.33;9.93;;;8.60;99.90;;;;;;5033049;28;20036;-71
2024/03/23 05:50:51;;;;;;;22.50;9.38;;;8.60;99.90;;;;;;5032178;28;20083;-71
2024/03/23 05:53:17;;;;;;;24.48;9.93;;;8.60;99.90;;;;;;5032698;28;20392;-71
2024/03/23 05:55:43;;;;;;;26.63;10.70;;;8.60;99.90;;;;;;5032519;28;20112;-71
2024/03/23 05:58:10;;;;;;;28.52;10.45;;;8.60;99.90;;;;;;5031817;28;20060;-71
2024/03/23 06:00:36;;;;;;;28.77;10.88;;;8.60;99.90;;;;;;5032093;28;20410;-71
2024/03/23 06:03:02;;;;;;;27.88;9.68;;;8.60;99.90;;;;;;5031633;28;20043;-71
2024/03/23 06:05:27;;;;;;;26.17;10.90;;;8.50;99.90;;;;;;5030232;28;20029;-71
2024/03/23 06:07:53;;;;;;;30.48;11.48;;;8.40;99.90;;;;;;5031836;28;20021;-71
2024/03/23 06:10:19;;;;;;;34.75;10.88;;;8.50;99.90;;;;;;5032116;28;20466;-71
2024/03/23 06:12:49;;;;;;;25.85;10.50;;;8.50;99.90;;;;;;5036486;28;20021;-71
2024/03/23 06:15:14;;;;;;;26.23;10.50;;;8.50;99.90;;;;;;5031664;28;20029;-71
2024/03/23 06:17:40;;;;;;;27.30;10.40;;;8.50;99.90;;;;;;5031232;28;20025;-71
2024/03/23 06:20:06;;;;;;;35.75;11.70;;;8.50;99.90;;;;;;5031040;28;20116;-71
2024/03/23 06:22:33;;;;;;;37.13;10.20;;;8.50;99.90;;;;;;5028034;28;20112;-73
2024/03/23 06:24:59;;;;;;;24.90;9.27;;;8.40;99.90;;;;;;5032116;28;20029;-73
2024/03/23 06:27:25;;;;;;;31.95;10.60;;;8.40;99.90;;;;;;5032053;28;20429;-73
2024/03/23 06:29:51;;;;;;;33.53;10.95;;;8.40;99.90;;;;;;5032130;28;20429;-71
2024/03/23 06:32:18;;;;;;;23.25;10.25;;;8.40;99.90;;;;;;5030825;28;20563;-71
2024/03/23 06:34:44;;;;;;;28.23;9.93;;;8.40;99.90;;;;;;5031945;28;20459;-72
2024/03/23 06:37:10;;;;;;;30.08;9.23;;;8.40;99.90;;;;;;5031698;28;20021;-72
2024/03/23 06:39:37;;;;;;;24.25;8.52;;;8.40;99.90;;;;;;5032258;28;20022;-71
2024/03/23 06:42:03;;;;;;;25.20;8.18;;;8.40;99.90;;;;;;5031744;28;20486;-72
2024/03/23 06:44:29;;;;;;;26.33;8.07;;;8.40;99.90;;;;;;5031921;28;20026;-72
2024/03/23 06:46:56;;;;;;;18.65;6.97;;;8.40;99.90;;;;;;5031291;28;20040;-72
2024/03/23 06:49:23;;;;;;;16.40;6.72;;;8.40;99.90;;;;;;5030968;28;20028;-72
2024/03/23 06:51:49;;;;;;;19.35;7.00;;;8.40;99.90;;;;;;5035364;28;20033;-73
2024/03/23 06:54:16;;;;;;;13.05;5.40;;;8.30;99.90;;;;;;5031183;28;20021;-73
2024/03/23 06:56:41;;;;;;;13.13;6.38;;;8.40;99.90;;;;;;5032002;28;20100;-73
2024/03/23 06:59:07;;;;;;;17.67;5.85;;;8.40;99.90;;;;;;5031586;28;20155;-73
2024/03/23 07:01:33;;;;;;;15.85;6.50;;;8.50;99.90;;;;;;5030342;28;20064;-73
2024/03/23 07:03:59;;;;;;;18.95;6.25;;;8.50;99.90;;;;;;5031373;28;20029;-72
2024/03/23 07:06:24;;;;;;;14.40;6.05;;;8.50;99.90;;;;;;5031586;28;20021;-72
2024/03/23 07:08:51;;;;;;;20.42;6.35;;;8.50;99.90;;;;;;5030436;28;20364;-73
2024/03/23 07:11:21;;;;;;;19.73;6.80;;;8.50;99.90;;;;;;5029480;28;20034;-73
2024/03/23 07:13:50;;;;;;;18.23;6.72;;;8.60;99.90;;;;;;5021444;28;20034;-70
2024/03/23 07:16:16;;;;;;;14.27;6.88;;;8.70;99.90;;;;;;5028118;28;20049;-70
2024/03/23 07:18:41;;;;;;;18.70;6.03;;;8.70;99.90;;;;;;5030397;28;20022;-69
2024/03/23 07:21:07;;;;;;;20.85;6.72;;;8.60;99.90;;;;;;5027944;28;20033;-73
2024/03/23 07:23:34;;;;;;;21.95;8.25;;;8.70;99.90;;;;;;5029678;28;20113;-72
2024/03/23 07:26:00;;;;;;;28.77;7.55;;;8.70;99.90;;;;;;5023188;28;20112;-72
2024/03/23 07:28:28;;;;;;;28.33;7.57;;;8.80;99.90;;;;;;5019217;28;20503;-75
2024/03/23 07:31:14;;;;;;;25.55;7.80;;;9.00;99.90;;;;;;5025952;28;20030;-74
2024/03/23 07:33:48;;;;;;;17.25;5.88;;;9.10;99.90;;;;;;5021784;28;20041;-73
2024/03/23 07:36:14;;;;;;;17.38;5.22;;;9.00;99.90;;;;;;5018819;28;20175;-71
2024/03/23 07:38:46;;;;;;;23.35;5.28;;;8.90;99.90;;;;;;5022484;28;20100;-71
2024/03/23 07:41:19;;;;;;;13.90;4.95;;;9.00;99.90;;;;;;5028951;28;20022;-70
2024/03/23 07:43:46;;;;;;;21.15;5.05;;;9.00;99.90;;;;;;5035048;28;20518;-72
2024/03/23 07:46:12;;;;;;;20.63;5.05;;;9.00;99.90;;;;;;5033716;28;20029;-72
2024/03/23 07:48:39;;;;;;;17.40;5.20;;;9.00;99.90;;;;;;5033825;28;20037;-72
2024/03/23 07:51:07;;;;;;;30.83;6.47;;;9.10;99.90;;;;;;5033221;28;20021;-72
2024/03/23 07:53:35;;;;;;;18.45;5.85;;;9.10;99.90;;;;;;5033729;28;20029;-75
2024/03/23 07:56:02;;;;;;;19.10;5.18;;;9.30;99.90;;;;;;5032780;28;20041;-75
2024/03/23 07:58:28;;;;;;;23.13;5.28;;;9.30;99.90;;;;;;5032612;28;20048;-75
2024/03/23 08:00:55;;;;;;;16.90;5.47;;;9.30;99.90;;;;;;5034327;28;20368;-72
2024/03/23 08:03:21;;;;;;;19.15;6.03;;;9.30;99.90;;;;;;5029365;28;20398;-75
2024/03/23 08:05:47;;;;;;;20.45;6.55;;;9.40;99.90;;;;;;5033177;28;20028;-75
2024/03/23 08:08:13;;;;;;;23.13;5.85;;;9.30;99.90;;;;;;5038537;28;20072;-75
2024/03/23 08:10:51;;;;;;;19.40;5.55;;;9.50;99.90;;;;;;5032941;28;20493;-76
2024/03/23 08:13:18;;;;;;;18.63;5.82;;;9.50;99.90;;;;;;5029339;28;20025;-75
2024/03/23 08:15:44;;;;;;;21.50;5.22;;;9.60;99.90;;;;;;5027147;28;20112;-73
2024/03/23 08:18:13;;;;;;;21.67;5.55;;;9.70;99.90;;;;;;5026539;28;20111;-74
2024/03/23 08:20:39;;;;;;;28.75;5.45;;;9.80;99.90;;;;;;5029348;28;20036;-74
2024/03/23 08:23:08;;;;;;;18.13;5.60;;;9.90;99.90;;;;;;5030853;28;20022;-73
2024/03/23 08:25:34;;;;;;;16.40;4.35;;;10.10;99.90;;;;;;5039038;28;20028;-75
2024/03/23 08:27:59;;;;;;;13.40;4.85;;;10.00;99.90;;;;;;5033176;28;20021;-75
2024/03/23 08:30:25;;;;;;;17.13;4.20;;;9.80;99.90;;;;;;5033778;28;20249;-74
2024/03/23 08:32:51;;;;;;;11.82;3.90;;;9.80;99.90;;;;;;5032497;28;20132;-73
2024/03/23 08:35:17;;;;;;;14.55;3.90;;;9.90;99.90;;;;;;5028706;28;20493;-78
2024/03/23 08:37:43;;;;;;;12.85;4.05;;;10.00;99.90;;;;;;5033650;28;20064;-77
2024/03/23 08:40:09;;;;;;;17.20;4.05;;;10.00;99.90;;;;;;5036636;28;20060;-74
2024/03/23 08:42:35;;;;;;;13.43;3.40;;;10.20;99.90;;;;;;5030803;28;20406;-73
2024/03/23 08:45:01;;;;;;;10.13;3.88;;;10.20;99.90;;;;;;5032914;28;20017;-74
2024/03/23 08:47:27;;;;;;;13.00;4.45;;;10.40;99.90;;;;;;5033767;28;20041;-76
2024/03/23 08:49:57;;;;;;;12.52;3.95;;;10.40;99.90;;;;;;5033276;28;20562;-73
2024/03/23 08:52:25;;;;;;;11.77;4.80;;;10.50;99.90;;;;;;5029551;28;20482;-75
2024/03/23 08:55:13;;;;;;;11.23;4.68;;;10.50;99.90;;;;;;5032312;28;20479;-75
2024/03/23 08:57:39;;;;;;;20.15;4.80;;;10.50;99.90;;;;;;5027976;28;20029;-76
2024/03/23 09:00:08;;;;;;;13.80;5.20;;;10.50;99.90;;;;;;5033087;28;20394;-75
2024/03/23 09:02:34;;;;;;;14.95;5.20;;;10.70;99.90;;;;;;5033068;28;20033;-76
2024/03/23 09:05:04;;;;;;;11.90;4.50;;;10.80;99.90;;;;;;5033419;28;20025;-76
2024/03/23 09:07:31;;;;;;;20.25;4.80;;;10.80;99.90;;;;;;5032849;28;20076;-76
2024/03/23 09:09:57;;;;;;;15.32;4.45;;;11.00;99.90;;;;;;5033264;28;20025;-73
2024/03/23 09:12:23;;;;;;;15.40;4.30;;;11.10;99.90;;;;;;5031697;28;20030;-75
2024/03/23 09:14:50;;;;;;;19.33;4.18;;;11.20;99.90;;;;;;5035648;28;20052;-75
2024/03/23 09:17:16;;;;;;;17.95;4.63;;;11.30;99.90;;;;;;5036846;28;20053;-77
2024/03/23 09:19:41;;;;;;;14.98;4.05;;;11.30;99.90;;;;;;5030698;28;20187;-76
2024/03/23 09:22:07;;;;;;;11.25;3.00;;;11.30;99.90;;;;;;5031344;28;20026;-75
2024/03/23 09:24:33;;;;;;;4.55;1.45;;;11.30;99.90;;;;;;5031321;28;20026;-74
2024/03/23 09:26:58;;;;;;;5.35;1.73;;;11.00;99.90;;;;;;5032389;28;20375;-76
2024/03/23 09:29:24;;;;;;;7.70;2.08;;;11.00;99.90;;;;;;5032873;28;20052;-75
2024/03/23 09:31:50;;;;;;;5.78;2.05;;;11.10;99.90;;;;;;5029967;28;20112;-75
2024/03/23 09:34:15;;;;;;;7.80;1.70;;;11.10;99.90;;;;;;5032725;28;20100;-74
2024/03/23 09:36:41;;;;;;;8.20;1.98;;;11.20;99.90;;;;;;5032608;28;20488;-75
2024/03/23 09:39:09;;;;;;;4.97;2.20;;;11.10;99.90;;;;;;5032068;28;20518;-75
2024/03/23 09:41:35;;;;;;;7.47;2.40;;;10.90;99.90;;;;;;5043930;28;20512;-74
2024/03/23 09:44:02;;;;;;;8.85;2.67;;;10.70;99.90;;;;;;5032013;28;20068;-75
2024/03/23 09:46:28;;;;;;;5.75;2.20;;;10.90;99.90;;;;;;5030106;28;20037;-75
2024/03/23 09:48:56;;;;;;;4.65;2.40;;;11.10;99.90;;;;;;5023968;28;20494;-76
2024/03/23 09:51:22;;;;;;;7.43;2.30;;;11.20;99.90;;;;;;5031374;28;20010;-75
2024/03/23 09:53:52;;;;;;;6.35;2.22;;;11.30;99.90;;;;;;5031674;28;20343;-76
2024/03/23 09:56:18;;;;;;;6.60;3.20;;;11.40;99.90;;;;;;5021203;28;20037;-76
2024/03/23 09:58:43;;;;;;;8.50;3.72;;;11.60;99.90;;;;;;5029455;28;20135;-74
2024/03/23 10:01:09;;;;;;;5.78;2.90;;;11.70;99.90;;;;;;5029374;28;20497;-74
2024/03/23 10:03:45;;;;;;;15.32;5.03;;;11.90;99.90;;;;;;5030480;28;20060;-75
2024/03/23 10:06:11;;;;;;;11.85;4.32;;;12.00;99.90;;;;;;5027807;28;20022;-77
2024/03/23 10:08:37;;;;;;;16.17;5.95;;;12.20;99.90;;;;;;5030790;28;20029;-75
2024/03/23 10:11:25;;;;;;;11.70;4.30;;;12.30;99.90;;;;;;5031687;28;20096;-74
2024/03/23 10:13:51;;;;;;;12.90;3.97;;;12.40;99.90;;;;;;5025411;28;20058;-74
2024/03/23 10:16:26;;;;;;;18.58;4.70;;;12.60;99.90;;;;;;5025107;28;20045;-76
2024/03/23 10:18:52;;;;;;;17.20;3.80;;;12.50;99.90;;;;;;5028363;28;20111;-73
2024/03/23 10:21:18;;;;;;;15.50;3.85;;;12.50;99.90;;;;;;5026042;28;20116;-75
2024/03/23 10:23:46;;;;;;;10.13;3.08;;;12.80;99.90;;;;;;5020343;28;20026;-76
2024/03/23 10:26:23;;;;;;;3.25;1.10;;;12.40;99.90;;;;;;5028164;28;20017;-73
2024/03/23 10:29:11;;;;;;;1.58;0.70;;;11.70;99.90;;;;;;5029204;28;20044;-77
2024/03/23 10:31:41;;;;;;;2.63;0.82;;;11.30;99.90;;;;;;5028142;28;20084;-74
2024/03/23 10:34:07;;;;;;;5.00;1.13;;;11.00;99.90;;;;;;5031058;28;20017;-73
2024/03/23 10:36:35;;;;;;;9.80;1.50;;;10.90;99.90;;;;;;5030778;28;20033;-72
2024/03/23 10:39:01;;;;;;;4.43;1.08;;;10.80;99.90;;;;;;5029741;28;20033;-73
2024/03/23 10:41:29;;;;;;;5.78;1.42;;;10.70;99.90;;;;;;5030916;28;20375;-73
2024/03/23 10:43:57;;;;;;;5.60;1.10;;;10.60;99.90;;;;;;5030620;28;20036;-73
2024/03/23 10:46:23;;;;;;;7.65;1.40;;;10.50;99.90;;;;;;5030213;28;20594;-73
2024/03/23 10:48:49;;;;;;;9.95;1.80;;;10.60;99.90;;;;;;5028235;28;20096;-72
2024/03/23 10:51:15;;;;;;;3.70;1.45;;;10.90;99.90;;;;;;5031506;28;20079;-74
2024/03/23 10:53:41;;;;;;;9.50;1.85;;;11.00;99.90;;;;;;5030701;28;20057;-73
2024/03/23 10:56:07;;;;;;;11.05;2.08;;;11.30;99.90;;;;;;5028223;28;20037;-74
2024/03/23 10:58:42;;;;;;;9.35;2.17;;;11.50;99.90;;;;;;5026018;28;20017;-74
2024/03/23 11:01:11;;;;;;;11.15;2.20;;;11.60;99.90;;;;;;5018399;28;20093;-75
2024/03/23 11:03:38;;;;;;;7.03;2.40;;;11.80;99.90;;;;;;5020071;28;20029;-73
2024/03/23 11:06:09;;;;;;;4.07;2.22;;;11.70;99.90;;;;;;5028873;28;20029;-75
2024/03/23 11:08:40;;;;;;;4.47;1.80;;;11.80;99.90;;;;;;5029337;28;20124;-76
2024/03/23 11:11:21;;;;;;;4.00;1.50;;;11.60;99.90;;;;;;5029869;28;20028;-75
2024/03/23 11:13:54;;;;;;;2.70;1.35;;;11.20;99.90;;;;;;5030522;28;20033;-73
2024/03/23 11:16:23;;;;;;;;;;;11.20;99.90;;;;;;5031174;28;20053;-74
2024/03/23 11:18:50;;;;;;;7.50;1.73;;;11.10;99.90;;;;;;5033460;28;19909;-75
2024/03/23 11:21:54;;;;;;;3.45;1.48;;;11.10;99.90;;;;;;5035303;28;20367;-77
2024/03/23 11:24:21;;;;;;;5.03;1.52;;;11.20;99.90;;;;;;5028600;28;20068;-75
2024/03/23 11:26:47;;;;;;;6.28;1.52;;;11.00;99.90;;;;;;5029340;28;20021;-72
2024/03/23 11:29:16;;;;;;;6.80;1.65;;;10.90;99.90;;;;;;5034824;28;20025;-77
2024/03/23 11:31:53;;;;;;;5.93;1.85;;;10.80;99.90;;;;;;5034942;28;20025;-74
2024/03/23 11:34:20;;;;;;;4.18;1.65;;;11.00;99.90;;;;;;5031859;28;20033;-79
2024/03/23 11:36:47;;;;;;;8.73;1.67;;;11.10;99.90;;;;;;5034170;28;20032;-78
2024/03/23 11:39:17;;;;;;;7.32;1.95;;;11.40;99.90;;;;;;5033502;28;20467;-76
2024/03/23 11:41:53;;;;;;;6.78;1.98;;;11.50;99.90;;;;;;5033638;28;20021;-73
2024/03/23 11:44:22;;;;;;;4.03;1.42;;;11.50;99.90;;;;;;5030946;28;20114;-74
2024/03/23 11:46:48;;;;;;;4.25;1.20;;;11.40;99.90;;;;;;5034405;28;20022;-74
2024/03/23 11:49:27;;;;;;;4.75;1.20;;;11.20;99.90;;;;;;5026474;28;20067;-74
2024/03/23 11:51:54;;;;;;;4.43;1.05;;;10.80;99.90;;;;;;5012645;28;20489;-75
2024/03/23 11:54:24;;;;;;;2.08;1.05;;;10.80;99.90;;;;;;5027112;28;20022;-76
2024/03/23 11:57:02;;;;;;;3.03;0.90;;;10.80;99.90;;;;;;5026601;28;20086;-73
2024/03/23 11:59:34;;;;;;;3.83;0.73;;;10.90;99.90;;;;;;5028108;28;20037;-74
2024/03/23 12:02:00;;;;;;;6.25;1.27;;;11.00;99.90;;;;;;5026067;28;20030;-73
2024/03/23 12:04:29;;;;;;;3.45;1.00;;;11.30;99.90;;;;;;5027241;28;20025;-76
2024/03/23 12:07:15;;;;;;;5.95;1.20;;;11.50;99.90;;;;;;5027745;28;20038;-78
2024/03/23 12:09:42;;;;;;;5.25;1.92;;;11.60;99.90;;;;;;5026701;28;20013;-80
2024/03/23 12:12:15;;;;;;;9.57;1.33;;;11.60;99.90;;;;;;5025842;28;20021;-77
2024/03/23 12:14:41;;;;;;;4.07;1.00;;;11.70;99.90;;;;;;5027480;28;20113;-76
2024/03/23 12:17:14;;;;;;;9.40;1.50;;;11.80;99.90;;;;;;5028431;28;20041;-75
2024/03/23 12:19:41;;;;;;;5.60;1.02;;;11.90;99.90;;;;;;5026645;28;20050;-75
2024/03/23 12:22:08;;;;;;;7.18;1.13;;;11.60;99.90;;;;;;5026064;28;20104;-80
2024/03/23 12:24:34;;;;;;;6.43;1.08;;;11.40;99.90;;;;;;5027860;28;20071;-78
2024/03/23 12:27:04;;;;;;;8.23;1.45;;;11.30;99.90;;;;;;5027771;28;20021;-77
2024/03/23 12:29:34;;;;;;;2.28;0.57;;;11.20;99.90;;;;;;5026202;28;20049;-74
2024/03/23 12:32:01;;;;;;;5.20;1.15;;;11.00;99.90;;;;;;5027554;28;20030;-78
2024/03/23 12:34:27;;;;;;;5.28;0.98;;;10.80;99.90;;;;;;5026116;28;20113;-77
2024/03/23 12:36:53;;;;;;;3.38;0.82;;;10.90;99.90;;;;;;5024956;28;20552;-77
2024/03/23 12:39:21;;;;;;;5.30;1.05;;;11.00;99.90;;;;;;5025689;28;20030;-77
2024/03/23 12:41:47;;;;;;;4.10;0.65;;;10.80;99.90;;;;;;5027163;28;20022;-75
2024/03/23 12:44:13;;;;;;;3.92;1.10;;;10.70;99.90;;;;;;5027131;28;20029;-75